Julio de Castilhos, Brazil
Current Conditions -  °F | °C
As of 5:00 PM on Thursday 18 Dec 2014 (Local Time) from SBSM Reporting Station
Scattered Clouds Scattered Clouds  
Wind Chill: 84°   Ceiling: Unl
Heat Index: 84°   Visibility: 6mi
Dew Point: 61°   Wind: 5mph
Humidity: 45%   Direction: 150°SSE
Pressure: 29.8"   Gusts: NA
Location:  29.23°S, 53.68°W
Report Text: SBSM 181900Z 15004KT 100V260 9999 SCT045 29/16 Q1009
Loading
Personal Weather Stations






























Interactive Weather Map New forecast layout! Learn more

10-Day Weather Forecast

Advertisements
Track Severe Weather on mobile